Time;durP1;ratioP1;P1;durP2;ratioP2;P2;SDS_P1;SDS_P2;PMS_P1;PMS_P2;Temp;Humidity;BMP_temperature;BMP_pressure;BME280_temperature;BME280_humidity;BME280_pressure;Samples;Min_cycle;Max_cycle;Signal;HPM_P1;HPM_P2
2021/03/17 00:00:31;;;;;;;1.98;0.73;;;5.10;99.90;;;;;;5087618;28;20051;-93
2021/03/17 00:02:58;;;;;;;2.13;0.95;;;5.10;99.90;;;;;;5069944;28;20146;-91
2021/03/17 00:05:28;;;;;;;4.82;1.35;;;5.10;99.90;;;;;;5087347;28;20564;-91
2021/03/17 00:08:00;;;;;;;1.92;0.60;;;5.20;99.90;;;;;;5085966;28;20430;-91
2021/03/17 00:10:28;;;;;;;2.95;1.42;;;5.10;99.90;;;;;;5086717;28;20046;-91
2021/03/17 00:12:56;;;;;;;3.15;0.80;;;5.10;99.90;;;;;;5103851;28;20040;-92
2021/03/17 00:15:24;;;;;;;4.43;0.68;;;5.00;99.90;;;;;;5088161;28;20045;-92
2021/03/17 00:17:50;;;;;;;2.58;0.63;;;5.10;99.90;;;;;;5083374;28;20040;-90
2021/03/17 00:20:16;;;;;;;5.22;0.73;;;5.20;99.90;;;;;;5121467;28;20122;-91
2021/03/17 00:22:43;;;;;;;5.30;0.77;;;5.20;99.90;;;;;;5087913;28;20044;-92
2021/03/17 00:25:09;;;;;;;4.32;0.70;;;5.20;99.90;;;;;;5069711;28;20056;-90
2021/03/17 00:27:35;;;;;;;5.30;1.13;;;5.10;99.90;;;;;;5086424;28;20516;-92
2021/03/17 00:30:20;;;;;;;1.48;0.50;;;5.20;99.90;;;;;;5069848;28;20051;-91
2021/03/17 00:32:46;;;;;;;9.02;0.70;;;5.20;99.90;;;;;;5087146;28;20464;-91
2021/03/17 00:35:53;;;;;;;;;;;;;;;;;;;;;
2021/03/17 00:42:42;;;;;;;6.50;0.75;;;5.10;99.90;;;;;;4977471;28;20067;-90
2021/03/17 00:46:09;;;;;;;6.40;1.88;;;5.20;99.90;;;;;;5091529;28;20070;-91
2021/03/17 00:48:58;;;;;;;4.75;1.00;;;5.20;99.90;;;;;;5072125;28;20112;-91
2021/03/17 00:51:39;;;;;;;6.53;1.23;;;5.20;99.90;;;;;;5001976;28;20129;-91
2021/03/17 00:54:05;;;;;;;3.65;1.00;;;5.20;99.90;;;;;;5070438;28;20143;-90
2021/03/17 00:56:30;;;;;;;5.85;0.85;;;5.30;99.90;;;;;;5107653;28;20043;-92
2021/03/17 00:58:56;;;;;;;8.60;1.30;;;5.10;99.90;;;;;;5090308;28;20039;-91
2021/03/17 01:01:22;;;;;;;5.00;1.25;;;5.10;99.90;;;;;;5073887;28;20051;-92
2021/03/17 01:03:48;;;;;;;6.68;1.17;;;5.10;99.90;;;;;;5074100;28;20145;-90
2021/03/17 01:06:14;;;;;;;6.65;0.80;;;5.10;99.90;;;;;;5089533;28;20213;-91
2021/03/17 01:08:42;;;;;;;6.22;1.23;;;5.10;99.90;;;;;;5089968;28;20484;-90
2021/03/17 01:11:08;;;;;;;6.75;1.30;;;5.00;99.90;;;;;;5084537;28;20044;-92
2021/03/17 01:13:34;;;;;;;4.38;0.90;;;5.00;99.90;;;;;;5090261;28;20048;-91
2021/03/17 01:16:00;;;;;;;9.57;0.93;;;5.00;99.90;;;;;;5088969;28;20042;-91
2021/03/17 01:18:26;;;;;;;5.00;1.45;;;5.10;99.90;;;;;;5090016;28;20130;-90
2021/03/17 01:20:52;;;;;;;4.80;1.00;;;5.00;99.90;;;;;;5089965;28;20031;-91
2021/03/17 01:23:17;;;;;;;5.90;1.10;;;5.00;99.90;;;;;;5089171;28;20071;-92
2021/03/17 01:25:45;;;;;;;9.63;1.73;;;5.00;99.90;;;;;;5088596;28;20044;-91
2021/03/17 01:28:11;;;;;;;4.95;1.50;;;5.10;99.90;;;;;;5085985;28;20039;-91
2021/03/17 01:31:15;;;;;;;4.55;1.42;;;5.10;99.90;;;;;;5089142;28;20135;-91
2021/03/17 01:34:05;;;;;;;2.40;1.42;;;5.00;99.90;;;;;;5059233;28;20054;-91
2021/03/17 01:36:30;;;;;;;7.47;1.75;;;5.10;99.90;;;;;;5091507;28;20166;-91
2021/03/17 01:38:56;;;;;;;7.55;1.38;;;5.00;99.90;;;;;;5107963;28;20040;-92
2021/03/17 01:41:22;;;;;;;4.80;1.75;;;5.00;99.90;;;;;;5108293;28;20043;-91
2021/03/17 01:45:05;;;;;;;;;;;;;;;;;;;;;
2021/03/17 01:47:38;;;;;;;4.15;1.15;;;5.00;99.90;;;;;;5119352;22;20111;-91
2021/03/17 01:50:07;;;;;;;6.45;1.10;;;5.10;99.90;;;;;;5078188;28;20036;-91
2021/03/17 01:52:34;;;;;;;9.00;1.42;;;5.10;99.90;;;;;;5098393;27;20035;-91
2021/03/17 01:54:59;;;;;;;7.88;2.65;;;5.00;99.90;;;;;;5101497;27;20040;-91
2021/03/17 01:58:06;;;;;;;4.40;0.93;;;5.10;99.90;;;;;;5102141;27;20031;-91
2021/03/17 02:00:32;;;;;;;8.85;1.25;;;5.00;99.90;;;;;;5100186;27;20127;-92
2021/03/17 02:02:58;;;;;;;3.92;1.88;;;5.00;99.90;;;;;;5080605;28;20077;-91
2021/03/17 02:05:51;;;;;;;5.82;1.10;;;5.10;99.90;;;;;;5068173;28;20416;-91
2021/03/17 02:08:22;;;;;;;8.45;1.13;;;5.00;99.90;;;;;;5077674;28;20056;-91
2021/03/17 02:10:49;;;;;;;3.22;0.90;;;5.00;99.90;;;;;;5053926;27;20127;-90
2021/03/17 02:13:39;;;;;;;5.60;0.88;;;5.00;99.90;;;;;;5085263;28;20052;-91
2021/03/17 02:16:48;;;;;;;6.32;1.02;;;4.90;99.90;;;;;;5073417;27;20397;-90
2021/03/17 02:19:50;;;;;;;5.22;1.08;;;5.00;99.90;;;;;;5009495;28;20092;-92
2021/03/17 02:22:27;;;;;;;5.63;1.08;;;4.90;99.90;;;;;;4996468;28;20048;-91
2021/03/17 02:25:04;;;;;;;7.55;1.13;;;4.90;99.90;;;;;;5058998;28;20469;-91
2021/03/17 02:27:30;;;;;;;7.00;1.70;;;5.00;99.90;;;;;;5100899;27;20044;-90
2021/03/17 02:30:14;;;;;;;5.80;1.42;;;4.90;99.90;;;;;;5090003;28;20085;-90
2021/03/17 02:33:04;;;;;;;4.88;1.25;;;4.90;99.90;;;;;;5082206;27;20054;-90
2021/03/17 02:35:31;;;;;;;5.22;1.33;;;5.00;99.90;;;;;;5109195;27;20043;-89
2021/03/17 02:38:05;;;;;;;7.85;1.80;;;5.00;99.90;;;;;;5077938;28;20063;-92
2021/03/17 02:40:33;;;;;;;11.93;1.73;;;5.00;99.90;;;;;;5067924;27;20123;-89
2021/03/17 02:43:09;;;;;;;7.13;1.40;;;5.00;99.90;;;;;;5092417;27;20032;-91
2021/03/17 02:45:38;;;;;;;1.48;1.02;;;5.00;99.90;;;;;;5087251;28;20047;-91
2021/03/17 02:48:14;;;;;;;6.55;1.35;;;5.00;99.90;;;;;;5138945;27;20451;-91
2021/03/17 02:50:43;;;;;;;7.65;1.50;;;5.00;99.90;;;;;;5108637;27;20103;-91
2021/03/17 02:53:10;;;;;;;5.30;1.13;;;5.00;99.90;;;;;;5105147;27;20043;-91
2021/03/17 02:55:44;;;;;;;7.68;1.27;;;5.00;99.90;;;;;;5111777;27;20047;-90
2021/03/17 02:58:11;;;;;;;5.50;1.08;;;5.00;99.90;;;;;;5124518;27;20039;-90
2021/03/17 03:00:41;;;;;;;6.13;1.17;;;4.90;99.90;;;;;;5148163;27;20035;-90
2021/03/17 03:03:09;;;;;;;7.40;1.42;;;4.90;99.90;;;;;;5088619;28;20036;-91
2021/03/17 03:05:36;;;;;;;5.15;0.98;;;4.90;99.90;;;;;;5119039;27;20063;-90
2021/03/17 03:08:03;;;;;;;6.18;1.17;;;4.80;99.90;;;;;;5099869;28;20127;-92
2021/03/17 03:10:30;;;;;;;5.53;1.35;;;4.80;99.90;;;;;;5090198;28;20038;-91
2021/03/17 03:12:58;;;;;;;2.40;0.73;;;4.80;99.90;;;;;;5088083;28;20060;-90
2021/03/17 03:15:27;;;;;;;2.85;0.80;;;4.80;99.90;;;;;;5077687;27;20043;-91
2021/03/17 03:17:55;;;;;;;4.53;0.65;;;4.90;99.90;;;;;;5104719;28;20039;-91
2021/03/17 03:20:23;;;;;;;4.07;1.05;;;4.80;99.90;;;;;;5105213;27;20440;-90
2021/03/17 03:22:51;;;;;;;2.38;0.70;;;4.80;99.90;;;;;;5093365;28;20046;-90
2021/03/17 03:25:19;;;;;;;3.63;0.85;;;4.80;99.90;;;;;;5071415;28;20091;-92
2021/03/17 03:27:46;;;;;;;3.85;0.80;;;4.90;99.90;;;;;;5088248;28;20039;-90
2021/03/17 03:30:17;;;;;;;4.50;1.00;;;4.90;99.90;;;;;;5093883;28;20038;-91
2021/03/17 03:32:44;;;;;;;3.88;0.73;;;4.90;99.90;;;;;;5112394;27;20488;-89
2021/03/17 03:35:12;;;;;;;4.78;0.85;;;4.90;99.90;;;;;;5074359;27;20042;-91
2021/03/17 03:37:38;;;;;;;7.30;1.10;;;4.90;99.90;;;;;;5094935;28;20043;-90
2021/03/17 03:40:09;;;;;;;3.03;0.88;;;4.80;99.90;;;;;;5072741;28;20043;-91
2021/03/17 03:42:35;;;;;;;7.00;1.20;;;4.90;99.90;;;;;;5092010;28;20043;-92
2021/03/17 03:45:03;;;;;;;4.05;0.82;;;4.90;99.90;;;;;;5089509;27;20036;-91
2021/03/17 03:47:28;;;;;;;5.78;0.80;;;4.90;99.90;;;;;;5093816;28;20067;-90
2021/03/17 03:49:54;;;;;;;5.05;1.08;;;4.90;99.90;;;;;;5095742;28;20032;-90
2021/03/17 03:52:29;;;;;;;5.97;0.93;;;4.80;99.90;;;;;;5101261;28;20031;-91
2021/03/17 03:55:06;;;;;;;7.28;1.58;;;4.80;99.90;;;;;;5084197;28;20484;-90
2021/03/17 03:57:40;;;;;;;8.40;1.00;;;4.70;99.90;;;;;;5101918;28;20047;-90
2021/03/17 04:00:09;;;;;;;4.00;1.00;;;4.70;99.90;;;;;;5104278;28;20419;-90
2021/03/17 04:02:57;;;;;;;4.50;0.85;;;4.70;99.90;;;;;;5074735;28;20044;-90
2021/03/17 04:05:28;;;;;;;6.55;1.30;;;4.70;99.90;;;;;;5106493;28;20134;-90
2021/03/17 04:07:56;;;;;;;6.07;1.20;;;4.70;99.90;;;;;;5073140;28;20551;-90
2021/03/17 04:10:23;;;;;;;10.52;2.70;;;4.70;99.90;;;;;;5107420;28;20071;-90
2021/03/17 04:12:52;;;;;;;8.00;1.20;;;4.60;99.90;;;;;;5090092;28;20051;-90
2021/03/17 04:15:19;;;;;;;5.47;1.10;;;4.60;99.90;;;;;;5105043;28;20039;-90
2021/03/17 04:18:00;;;;;;;3.75;0.85;;;4.50;99.90;;;;;;5086549;28;20048;-90
2021/03/17 04:20:31;;;;;;;2.60;0.85;;;4.60;99.90;;;;;;5095434;28;20046;-91
2021/03/17 04:22:58;;;;;;;4.43;1.00;;;4.60;99.90;;;;;;5093457;28;20373;-91
2021/03/17 04:25:24;;;;;;;4.82;0.70;;;4.50;99.90;;;;;;5091146;28;20042;-92
2021/03/17 04:27:53;;;;;;;3.28;1.15;;;4.60;99.90;;;;;;5108451;27;20077;-91
2021/03/17 04:30:20;;;;;;;7.60;1.38;;;4.60;99.90;;;;;;5092362;27;20416;-89
2021/03/17 04:32:48;;;;;;;6.47;0.85;;;4.50;99.90;;;;;;5090649;27;20108;-91
2021/03/17 04:35:16;;;;;;;8.98;1.75;;;4.40;99.90;;;;;;5107602;27;20037;-92
2021/03/17 04:37:46;;;;;;;7.78;1.20;;;4.40;99.90;;;;;;5095262;27;20055;-90
2021/03/17 04:40:13;;;;;;;8.60;0.90;;;4.30;99.90;;;;;;5110596;27;20126;-89
2021/03/17 04:42:44;;;;;;;3.95;0.80;;;4.20;99.90;;;;;;5092958;28;20046;-91
2021/03/17 04:49:18;;;;;;;6.35;1.50;;;4.10;99.90;;;;;;5035065;28;20201;-90
2021/03/17 04:51:46;;;;;;;6.47;1.13;;;4.10;99.90;;;;;;5060024;28;20051;-92
2021/03/17 04:54:12;;;;;;;3.22;0.70;;;4.10;99.90;;;;;;5054209;28;20051;-90
2021/03/17 04:56:42;;;;;;;5.70;0.95;;;4.20;99.90;;;;;;5062297;28;20048;-91
2021/03/17 04:59:12;;;;;;;8.68;1.15;;;4.20;99.90;;;;;;5061803;28;20040;-90
2021/03/17 05:01:42;;;;;;;3.90;0.90;;;4.30;99.90;;;;;;5075133;28;20377;-91
2021/03/17 05:04:10;;;;;;;3.92;0.75;;;4.30;99.90;;;;;;5081736;28;20099;-91
2021/03/17 05:06:36;;;;;;;6.30;0.98;;;4.40;99.90;;;;;;5062703;28;20064;-90
2021/03/17 05:09:04;;;;;;;10.20;1.15;;;4.50;99.90;;;;;;5063012;28;20048;-92
2021/03/17 05:11:31;;;;;;;12.38;0.98;;;4.60;99.90;;;;;;5089210;28;20071;-91
2021/03/17 05:13:57;;;;;;;10.02;0.90;;;4.60;99.90;;;;;;5094944;28;20065;-91
2021/03/17 05:16:25;;;;;;;16.33;1.77;;;4.60;99.90;;;;;;5087977;28;20058;-90
2021/03/17 05:18:51;;;;;;;6.50;1.60;;;4.60;99.90;;;;;;5065780;28;20059;-91
2021/03/17 05:21:17;;;;;;;6.07;1.27;;;4.70;99.90;;;;;;5086850;28;20407;-91
2021/03/17 05:23:43;;;;;;;8.65;1.17;;;4.70;99.90;;;;;;5059663;28;20133;-92
2021/03/17 05:26:10;;;;;;;9.02;1.10;;;4.70;99.90;;;;;;5081400;28;20051;-91
2021/03/17 05:28:59;;;;;;;6.65;1.17;;;4.70;99.90;;;;;;5082312;28;20051;-90
2021/03/17 05:31:26;;;;;;;9.15;1.27;;;4.70;99.90;;;;;;5087595;28;20054;-91
2021/03/17 05:33:51;;;;;;;11.13;2.05;;;4.70;99.90;;;;;;5092318;28;20035;-93
2021/03/17 05:36:17;;;;;;;8.50;1.30;;;4.60;99.90;;;;;;5088513;28;20516;-92
2021/03/17 05:38:44;;;;;;;12.07;1.75;;;4.50;99.90;;;;;;5079187;27;20043;-89
2021/03/17 05:41:10;;;;;;;8.55;1.30;;;4.50;99.90;;;;;;5098123;28;20027;-91
2021/03/17 05:43:38;;;;;;;15.65;3.53;;;4.50;99.90;;;;;;5088495;28;20157;-92
2021/03/17 05:46:05;;;;;;;10.07;1.30;;;4.40;99.90;;;;;;5088098;27;20051;-91
2021/03/17 05:48:34;;;;;;;8.68;1.40;;;4.40;99.90;;;;;;5080031;28;20051;-90
2021/03/17 05:51:01;;;;;;;13.18;2.80;;;4.50;99.90;;;;;;5097759;27;20035;-91
2021/03/17 05:53:27;;;;;;;15.38;1.75;;;4.50;99.90;;;;;;5080788;27;20040;-91
2021/03/17 05:55:53;;;;;;;8.43;2.15;;;4.40;99.90;;;;;;5107399;27;20034;-90
2021/03/17 05:58:23;;;;;;;10.90;1.77;;;4.40;99.90;;;;;;5109913;27;20039;-92
2021/03/17 06:00:49;;;;;;;13.43;1.70;;;4.10;99.90;;;;;;5102713;28;20043;-92
2021/03/17 06:03:16;;;;;;;8.77;1.55;;;4.10;99.90;;;;;;5091570;28;20040;-90
2021/03/17 06:05:45;;;;;;;10.38;1.45;;;4.10;99.90;;;;;;5094786;28;20119;-91
2021/03/17 06:08:18;;;;;;;4.97;1.50;;;4.10;99.90;;;;;;5079689;27;20445;-91
2021/03/17 06:10:46;;;;;;;9.23;1.25;;;4.10;99.90;;;;;;5086185;28;20043;-91
2021/03/17 06:13:14;;;;;;;8.82;1.65;;;4.10;99.90;;;;;;5074578;28;20047;-93
2021/03/17 06:15:45;;;;;;;7.47;1.40;;;4.10;99.90;;;;;;5090966;27;20036;-91
2021/03/17 06:18:41;;;;;;;11.50;1.40;;;4.10;99.90;;;;;;5102158;28;20040;-91
2021/03/17 06:21:07;;;;;;;13.45;1.98;;;4.10;99.90;;;;;;5079242;27;20050;-92
2021/03/17 06:23:33;;;;;;;5.25;1.17;;;4.20;99.90;;;;;;5102811;27;20047;-92
2021/03/17 06:25:59;;;;;;;12.40;1.50;;;4.20;99.90;;;;;;5093445;28;20040;-92
2021/03/17 06:28:27;;;;;;;10.45;1.50;;;4.20;99.90;;;;;;5089771;28;20478;-93
2021/03/17 06:30:54;;;;;;;8.50;2.13;;;4.40;99.90;;;;;;5094082;28;20067;-91
2021/03/17 06:33:19;;;;;;;8.13;2.00;;;4.40;99.90;;;;;;5072127;28;20468;-92
2021/03/17 06:36:11;;;;;;;8.73;1.60;;;4.40;99.90;;;;;;5093625;28;20036;-93
2021/03/17 06:38:37;;;;;;;13.30;1.60;;;4.40;99.90;;;;;;5088802;28;20445;-89
2021/03/17 06:41:03;;;;;;;10.18;1.77;;;4.30;99.90;;;;;;5076069;28;20040;-92
2021/03/17 06:43:40;;;;;;;10.93;1.75;;;4.30;99.90;;;;;;5089821;28;20080;-91
2021/03/17 06:46:16;;;;;;;5.88;1.10;;;4.40;99.90;;;;;;5092062;28;20055;-92
2021/03/17 06:48:41;;;;;;;10.35;1.80;;;4.40;99.90;;;;;;5090202;27;20039;-91
2021/03/17 06:51:13;;;;;;;9.18;2.72;;;4.40;99.90;;;;;;5107187;27;20457;-91
2021/03/17 06:53:47;;;;;;;12.15;2.17;;;4.50;99.90;;;;;;5108857;27;20050;-92
2021/03/17 06:56:21;;;;;;;14.13;2.47;;;4.50;99.90;;;;;;5077721;28;20147;-90
2021/03/17 06:58:57;;;;;;;14.25;1.73;;;4.50;99.90;;;;;;5096202;27;20107;-90
2021/03/17 07:01:24;;;;;;;11.05;1.60;;;4.60;99.90;;;;;;5109686;27;20047;-92
2021/03/17 07:03:57;;;;;;;17.35;2.50;;;4.60;99.90;;;;;;5111836;27;20039;-91
2021/03/17 07:06:24;;;;;;;15.40;2.38;;;4.60;99.90;;;;;;5091222;28;20427;-90
2021/03/17 07:08:50;;;;;;;15.10;2.40;;;4.80;99.90;;;;;;5089023;28;20119;-92
2021/03/17 07:11:24;;;;;;;21.90;2.10;;;4.80;99.90;;;;;;5068576;28;20586;-92
2021/03/17 07:13:55;;;;;;;15.00;2.40;;;4.80;99.90;;;;;;5087957;27;20039;-91
2021/03/17 07:16:35;;;;;;;18.70;2.17;;;4.90;99.90;;;;;;5095727;27;20047;-92
2021/03/17 07:19:03;;;;;;;9.98;2.08;;;5.00;99.90;;;;;;5088491;28;20561;-92
2021/03/17 07:21:31;;;;;;;14.55;2.65;;;5.00;99.90;;;;;;5073673;28;20385;-93
2021/03/17 07:23:57;;;;;;;16.25;1.98;;;5.00;99.90;;;;;;5062466;28;20071;-92
2021/03/17 07:26:25;;;;;;;15.60;2.45;;;5.00;99.90;;;;;;5077261;28;20092;-92
2021/03/17 07:29:11;;;;;;;12.52;2.22;;;5.10;99.90;;;;;;5087232;28;20039;-92
2021/03/17 07:31:48;;;;;;;7.90;2.03;;;5.20;99.90;;;;;;5073646;28;20039;-92
2021/03/17 07:34:22;;;;;;;14.00;2.50;;;5.30;99.90;;;;;;5099810;27;20042;-83
2021/03/17 07:36:49;;;;;;;16.70;3.47;;;5.60;99.90;;;;;;5105379;27;20135;-83
2021/03/17 07:39:37;;;;;;;21.33;3.47;;;5.60;99.90;;;;;;5101961;28;20396;-84
2021/03/17 07:42:06;;;;;;;16.90;2.78;;;5.80;99.90;;;;;;5103698;28;20093;-84
2021/03/17 07:44:34;;;;;;;12.52;1.75;;;5.80;99.90;;;;;;5083538;28;20473;-83
2021/03/17 07:47:02;;;;;;;10.48;1.90;;;5.90;99.90;;;;;;5084647;28;20125;-82
2021/03/17 07:49:29;;;;;;;12.07;1.92;;;6.00;99.90;;;;;;5103410;28;20040;-84
2021/03/17 07:51:57;;;;;;;10.55;2.30;;;6.00;99.90;;;;;;5105253;28;20048;-82
2021/03/17 07:54:28;;;;;;;11.38;2.22;;;6.00;99.90;;;;;;5099579;27;20035;-82
2021/03/17 07:56:55;;;;;;;13.50;2.17;;;6.00;99.90;;;;;;5103941;28;20500;-83
2021/03/17 07:59:22;;;;;;;9.25;1.85;;;6.00;99.90;;;;;;5104425;27;20044;-83
2021/03/17 08:01:52;;;;;;;11.05;2.20;;;6.10;99.90;;;;;;5104036;27;20048;-83
2021/03/17 08:04:18;;;;;;;14.55;1.92;;;6.10;99.90;;;;;;5099652;28;20466;-83
2021/03/17 08:06:44;;;;;;;12.35;1.77;;;6.10;99.90;;;;;;5105178;28;20143;-83
2021/03/17 08:09:10;;;;;;;12.70;2.13;;;6.00;99.90;;;;;;5104074;27;20048;-83
2021/03/17 08:11:37;;;;;;;12.60;2.40;;;5.80;99.90;;;;;;5103146;28;20039;-83
2021/03/17 08:14:06;;;;;;;11.82;2.25;;;5.80;99.90;;;;;;5103102;28;20571;-83
2021/03/17 08:16:38;;;;;;;12.48;1.90;;;5.80;99.90;;;;;;5102634;28;20424;-83
2021/03/17 08:19:22;;;;;;;14.67;2.30;;;5.80;99.90;;;;;;5107850;27;20421;-90
2021/03/17 08:21:51;;;;;;;18.30;3.65;;;5.80;99.90;;;;;;5116124;28;20324;-91
2021/03/17 08:24:40;;;;;;;8.63;2.38;;;5.80;99.90;;;;;;5095359;28;20063;-90
2021/03/17 08:27:06;;;;;;;13.07;2.08;;;5.70;99.90;;;;;;5070478;28;20090;-90
2021/03/17 08:29:48;;;;;;;11.48;2.35;;;5.80;99.90;;;;;;5024831;28;20033;-92
2021/03/17 08:32:17;;;;;;;18.45;2.50;;;6.00;99.90;;;;;;5050337;28;20037;-91
2021/03/17 08:34:53;;;;;;;18.20;2.92;;;5.90;99.90;;;;;;5048761;28;20552;-90
2021/03/17 08:37:19;;;;;;;11.35;2.08;;;5.90;99.90;;;;;;5037469;28;20041;-91
2021/03/17 08:39:47;;;;;;;11.43;2.28;;;5.90;99.90;;;;;;5018736;28;20047;-92
2021/03/17 08:42:29;;;;;;;13.27;2.13;;;6.00;99.90;;;;;;5050944;28;20039;-91
2021/03/17 08:44:58;;;;;;;7.10;1.93;;;5.90;99.90;;;;;;5041671;28;20057;-91
2021/03/17 08:47:33;;;;;;;8.50;1.73;;;5.90;99.90;;;;;;5062277;28;20136;-90
2021/03/17 08:50:22;;;;;;;14.02;2.08;;;6.00;99.90;;;;;;5056265;28;20344;-91
2021/03/17 08:52:57;;;;;;;10.77;1.40;;;5.90;99.90;;;;;;5067305;28;20170;-92
2021/03/17 08:55:39;;;;;;;7.22;1.50;;;6.00;99.90;;;;;;5058423;28;20047;-91
2021/03/17 08:58:08;;;;;;;12.85;1.95;;;6.10;99.90;;;;;;5058789;28;20040;-91
2021/03/17 09:00:40;;;;;;;10.55;3.25;;;6.00;99.90;;;;;;5062904;28;20481;-92
2021/03/17 09:03:05;;;;;;;14.00;2.28;;;6.00;99.90;;;;;;5038037;28;20095;-92
2021/03/17 09:05:32;;;;;;;12.23;1.20;;;6.20;99.90;;;;;;5048902;28;20541;-91
2021/03/17 09:08:07;;;;;;;10.02;2.20;;;6.20;99.90;;;;;;5059860;28;20131;-90
2021/03/17 09:10:45;;;;;;;6.78;1.40;;;6.30;99.90;;;;;;5048912;28;20087;-92
2021/03/17 09:13:13;;;;;;;8.15;1.50;;;6.20;99.90;;;;;;5053502;28;20477;-93
2021/03/17 09:15:44;;;;;;;13.48;1.42;;;6.20;99.90;;;;;;5055411;28;20041;-91
2021/03/17 09:18:10;;;;;;;8.20;1.55;;;6.30;99.90;;;;;;5054235;28;20473;-92
2021/03/17 09:20:45;;;;;;;10.10;1.70;;;6.40;99.90;;;;;;5047903;28;20037;-90
2021/03/17 09:23:15;;;;;;;11.15;1.30;;;6.60;99.90;;;;;;5046244;28;20558;-93
2021/03/17 09:25:55;;;;;;;7.88;2.15;;;6.90;99.90;;;;;;5038997;28;20230;-91
2021/03/17 09:28:24;;;;;;;18.08;2.13;;;6.70;99.90;;;;;;5047691;28;20557;-92
2021/03/17 09:30:53;;;;;;;9.80;1.30;;;6.70;99.90;;;;;;5064749;28;20052;-92
2021/03/17 09:33:24;;;;;;;13.23;2.22;;;6.50;99.90;;;;;;5044008;28;20055;-91
2021/03/17 09:36:01;;;;;;;8.90;1.75;;;6.60;99.90;;;;;;5050634;28;20094;-91
2021/03/17 09:38:30;;;;;;;13.57;1.85;;;6.70;99.90;;;;;;5069027;28;20017;-92
2021/03/17 09:41:00;;;;;;;13.18;3.05;;;6.70;99.90;;;;;;5038623;28;20041;-90
2021/03/17 09:43:44;;;;;;;11.00;2.00;;;6.90;99.90;;;;;;5049839;28;20113;-91
2021/03/17 09:46:22;;;;;;;11.32;1.30;;;7.00;99.90;;;;;;5030505;28;20379;-92
2021/03/17 09:48:50;;;;;;;11.00;1.70;;;6.80;99.90;;;;;;5029845;28;20105;-92
2021/03/17 09:51:18;;;;;;;8.77;1.67;;;6.60;99.90;;;;;;5033812;28;20028;-93
2021/03/17 09:53:45;;;;;;;7.25;1.70;;;7.10;99.90;;;;;;5041455;28;20099;-93
2021/03/17 09:56:12;;;;;;;10.60;1.20;;;6.90;99.90;;;;;;5027631;28;20095;-90
2021/03/17 09:58:38;;;;;;;7.05;0.93;;;6.90;99.90;;;;;;5028531;28;20533;-90
2021/03/17 10:01:09;;;;;;;6.85;1.13;;;6.90;99.90;;;;;;5044352;28;20045;-92
2021/03/17 10:03:35;;;;;;;7.90;1.27;;;7.40;99.90;;;;;;5044440;28;20123;-92
2021/03/17 10:06:01;;;;;;;4.93;1.13;;;7.50;99.90;;;;;;5045345;28;20490;-91
2021/03/17 10:08:27;;;;;;;7.75;1.45;;;7.60;99.90;;;;;;5032367;28;20135;-91
2021/03/17 10:10:53;;;;;;;8.90;1.75;;;7.70;99.90;;;;;;5053840;28;20422;-91
2021/03/17 10:13:19;;;;;;;5.00;0.95;;;7.70;99.90;;;;;;5062951;28;20060;-92
2021/03/17 10:15:50;;;;;;;10.77;1.63;;;8.00;99.90;;;;;;5054678;28;20075;-92
2021/03/17 10:18:16;;;;;;;6.97;1.30;;;7.70;99.90;;;;;;5030442;28;20055;-91
2021/03/17 10:20:41;;;;;;;9.30;2.08;;;7.70;99.90;;;;;;5045562;28;20098;-92
2021/03/17 10:23:07;;;;;;;15.35;2.17;;;7.50;99.90;;;;;;5064043;28;20575;-92
2021/03/17 10:25:33;;;;;;;9.20;1.63;;;7.30;99.90;;;;;;5060435;28;20036;-92
2021/03/17 10:28:05;;;;;;;9.63;1.70;;;7.30;99.90;;;;;;5044965;28;20094;-92
2021/03/17 10:30:40;;;;;;;10.60;1.40;;;7.30;99.90;;;;;;5059327;28;20623;-93
2021/03/17 10:33:10;;;;;;;8.05;1.17;;;7.40;99.90;;;;;;5023149;28;20036;-92
2021/03/17 10:35:41;;;;;;;5.47;1.05;;;7.40;99.90;;;;;;5049123;28;20049;-92
2021/03/17 10:38:08;;;;;;;8.63;1.92;;;7.40;99.90;;;;;;5019846;28;20135;-93
2021/03/17 10:40:37;;;;;;;5.65;0.95;;;7.40;99.90;;;;;;5026984;28;20052;-92
2021/03/17 10:43:16;;;;;;;6.95;0.98;;;7.50;99.90;;;;;;5036210;28;20112;-93
2021/03/17 10:45:50;;;;;;;8.65;1.45;;;7.20;99.90;;;;;;5035041;28;20060;-92
2021/03/17 10:48:22;;;;;;;5.70;1.20;;;7.20;99.90;;;;;;5059284;28;20048;-93
2021/03/17 10:50:49;;;;;;;7.35;0.95;;;7.10;99.90;;;;;;5054412;28;20040;-92
2021/03/17 10:53:29;;;;;;;3.95;0.68;;;7.30;99.90;;;;;;5010762;28;20068;-94
2021/03/17 10:55:57;;;;;;;5.78;0.77;;;7.50;99.90;;;;;;5021957;28;20068;-91
2021/03/17 10:58:41;;;;;;;5.00;1.20;;;7.80;99.90;;;;;;5057054;28;20048;-88
2021/03/17 11:01:07;;;;;;;3.63;0.63;;;7.80;99.90;;;;;;5072557;28;20048;-92
2021/03/17 11:03:40;;;;;;;6.22;1.27;;;7.70;99.90;;;;;;5048345;28;20114;-90
2021/03/17 11:06:09;;;;;;;;;;;7.30;99.90;;;;;;5027701;28;20086;-92
2021/03/17 11:08:35;;;;;;;6.82;1.10;;;7.20;99.90;;;;;;5037541;28;19924;-91
2021/03/17 11:11:04;;;;;;;5.05;0.95;;;7.00;99.90;;;;;;5062267;28;20090;-93
2021/03/17 11:13:31;;;;;;;5.97;1.10;;;6.90;99.90;;;;;;5051959;28;20063;-92
2021/03/17 11:16:00;;;;;;;4.35;0.95;;;7.10;99.90;;;;;;5016808;28;20091;-90
2021/03/17 11:18:30;;;;;;;6.78;0.98;;;7.10;99.90;;;;;;5029374;28;20084;-92
2021/03/17 11:21:06;;;;;;;10.52;1.65;;;7.20;99.90;;;;;;5044238;28;20052;-91
2021/03/17 11:23:36;;;;;;;2.10;1.00;;;7.10;99.90;;;;;;5026699;28;20040;-92
2021/03/17 11:26:04;;;;;;;9.60;3.38;;;7.30;99.90;;;;;;5028354;28;20041;-94
2021/03/17 11:28:40;;;;;;;7.35;1.45;;;7.00;99.90;;;;;;5041454;28;20056;-91
2021/03/17 11:31:11;;;;;;;5.82;1.13;;;6.70;99.90;;;;;;5053883;28;20060;-91
2021/03/17 11:33:37;;;;;;;10.23;2.25;;;6.70;99.90;;;;;;5036970;28;20044;-93
2021/03/17 11:36:07;;;;;;;5.22;1.00;;;6.80;99.90;;;;;;5055064;28;20140;-92
2021/03/17 11:38:34;;;;;;;6.15;1.17;;;7.10;99.90;;;;;;5040802;28;20036;-91
2021/03/17 11:41:00;;;;;;;6.68;1.80;;;7.40;99.90;;;;;;5066014;28;20037;-91
2021/03/17 11:43:31;;;;;;;8.18;1.10;;;7.50;99.90;;;;;;5045794;28;20383;-91
2021/03/17 11:46:00;;;;;;;15.95;3.22;;;7.40;99.90;;;;;;5063727;28;20067;-92
2021/03/17 11:48:27;;;;;;;6.20;1.40;;;7.50;99.90;;;;;;5029504;28;20417;-93
2021/03/17 11:50:55;;;;;;;7.68;1.35;;;7.20;99.90;;;;;;5052461;28;20043;-91
2021/03/17 11:53:22;;;;;;;6.00;1.40;;;7.20;99.90;;;;;;5039574;28;20086;-92
2021/03/17 11:55:49;;;;;;;7.55;1.40;;;7.00;99.90;;;;;;5026180;28;20121;-90
2021/03/17 11:58:16;;;;;;;8.93;1.30;;;6.70;99.90;;;;;;5018851;28;20132;-91
2021/03/17 12:00:43;;;;;;;11.20;2.53;;;6.60;99.90;;;;;;5063974;28;20062;-92
2021/03/17 12:03:11;;;;;;;5.40;1.13;;;6.70;99.90;;;;;;5036520;28;20565;-90
2021/03/17 12:05:37;;;;;;;3.00;0.90;;;6.60;99.90;;;;;;5036829;28;20086;-93
2021/03/17 12:08:03;;;;;;;4.07;0.57;;;6.60;99.90;;;;;;5066953;28;20094;-91
2021/03/17 12:10:29;;;;;;;7.57;0.80;;;7.00;99.90;;;;;;5050651;28;20040;-92
2021/03/17 12:12:56;;;;;;;5.18;0.70;;;7.80;99.90;;;;;;5057276;28;20040;-92
2021/03/17 12:15:23;;;;;;;8.35;1.20;;;8.30;99.90;;;;;;5024170;28;20068;-91
2021/03/17 12:17:50;;;;;;;7.28;0.90;;;8.20;99.90;;;;;;5065803;28;20076;-91
2021/03/17 12:20:17;;;;;;;5.45;0.95;;;7.90;99.90;;;;;;5062711;28;20052;-91
2021/03/17 12:22:43;;;;;;;4.28;1.30;;;7.80;99.90;;;;;;5017098;28;20397;-91
2021/03/17 12:25:11;;;;;;;4.15;0.90;;;7.60;99.90;;;;;;5079550;28;20052;-90
2021/03/17 12:27:38;;;;;;;5.22;1.00;;;7.20;99.90;;;;;;5069064;28;20106;-92
2021/03/17 12:30:06;;;;;;;6.30;0.65;;;6.80;99.90;;;;;;5029395;28;20140;-91
2021/03/17 12:32:32;;;;;;;5.65;1.42;;;6.70;99.90;;;;;;5021526;28;20375;-92
2021/03/17 12:34:57;;;;;;;3.33;0.88;;;7.00;99.90;;;;;;5064425;28;20045;-92
2021/03/17 12:37:24;;;;;;;4.43;1.17;;;7.40;99.90;;;;;;5033283;28;20058;-90
2021/03/17 12:39:49;;;;;;;5.72;0.80;;;7.50;99.90;;;;;;5072088;28;20032;-90
2021/03/17 12:42:15;;;;;;;4.30;0.90;;;8.20;99.90;;;;;;5073437;28;20052;-91
2021/03/17 12:44:41;;;;;;;7.53;1.25;;;8.30;99.90;;;;;;5058924;28;20505;-92
2021/03/17 12:47:10;;;;;;;3.20;0.85;;;8.20;99.90;;;;;;5051972;28;20052;-91
2021/03/17 12:49:37;;;;;;;4.25;1.23;;;7.80;99.90;;;;;;5032354;28;20037;-92
2021/03/17 12:52:03;;;;;;;3.85;0.75;;;7.80;99.90;;;;;;5061011;28;20060;-92
2021/03/17 12:54:29;;;;;;;6.35;0.73;;;7.50;99.90;;;;;;5018686;28;20465;-91
2021/03/17 12:56:55;;;;;;;6.97;1.75;;;7.80;99.90;;;;;;5027933;28;20055;-92
2021/03/17 12:59:21;;;;;;;3.55;1.10;;;8.10;99.90;;;;;;5060090;28;20041;-90
2021/03/17 13:01:46;;;;;;;9.55;1.35;;;8.00;99.90;;;;;;5039433;28;20044;-92
2021/03/17 13:04:12;;;;;;;6.90;1.25;;;7.90;99.90;;;;;;5028905;28;20175;-90
2021/03/17 13:06:41;;;;;;;5.80;1.02;;;7.60;99.90;;;;;;5046850;28;20047;-91
2021/03/17 13:09:07;;;;;;;5.82;0.75;;;7.70;99.90;;;;;;5053758;28;20048;-93
2021/03/17 13:11:35;;;;;;;9.52;1.45;;;7.70;99.90;;;;;;5052042;28;20134;-92
2021/03/17 13:14:06;;;;;;;4.65;1.17;;;7.80;99.90;;;;;;5056808;28;20044;-92
2021/03/17 13:16:35;;;;;;;7.63;0.90;;;7.80;99.90;;;;;;5058576;28;20052;-92
2021/03/17 13:19:01;;;;;;;4.63;0.90;;;7.50;99.90;;;;;;5048096;28;20072;-92
2021/03/17 13:21:27;;;;;;;5.53;0.85;;;7.40;99.90;;;;;;5055243;28;20061;-91
2021/03/17 13:23:53;;;;;;;7.78;1.70;;;7.20;99.90;;;;;;5057022;28;20079;-91